• Join FlightAware (Why Join?)
  • Login
  • US Flag 
08:05PM EST


 

Airport Tracker/Info


-or-


 

Live Flight TrackerFlight Track Log ✈ AWI3688 ✈ 27-Apr-2013 ✈ KALB - KPHL

Flight Track Log - Related Links

Times and Time Zones

All times are in EDT time to prevent confusion due to time zone crossing. See the AWI3688 flight status page for this flight to view local times or setup timezone preferences in your user account.

Time Position Orientation Groundspeed Altitude Reporting Facility
EDT Latitude Longitude Course Direction KTS MPH feet Rate Location/Type
02:24PM 42.7694 -73.8147 220° Southwest 164 189 1,400  Level Boston Center
02:25PM 42.7872 -73.8858 289° West 205 236 3,900 2,760 Climbing Boston Center
02:26PM 42.7334 -74.1787 270° West  Level FlightAware Approximate
02:26PM 42.7883 -73.9594 271° West 217 250 6,900  Level Boston Center
02:27PM 42.7313 -74.3041 236° Southwest  Level FlightAware Approximate
02:27PM 42.7767 -74.0494 260° West 223 257 9,300  Level Boston Center
02:28PM 42.6653 -74.3912 220° Southwest  Level FlightAware Approximate
02:28PM 42.7650 -74.1425 260° West 265 305 11,100  Level Boston Center
02:29PM 42.5938 -74.4715 220° Southwest  Level FlightAware Approximate
02:29PM 42.7483 -74.2722 260° West 314 361 12,900  Level Boston Center
02:30PM 42.6947 -74.3667 232° Southwest 343 395 15,100 2,220 Climbing Boston Center
02:31PM 42.6075 -74.4656 220° Southwest 362 417 17,400 1,440 Climbing Boston Center
02:32PM 42.5350 -74.5506 221° Southwest 381 438 18,000 300 Climbing Boston Center
02:33PM 42.4350 -74.6625 220° Southwest 410 472 18,000  Level Boston Center
02:34PM 42.3581 -74.7525 221° Southwest 415 478 18,000  Level Boston Center
02:36PM 42.1506 -74.9806 219° Southwest 418 481 18,000  Level New York Center
02:37PM 42.0539 -75.0639 213° Southwest 428 493 18,000  Level New York Center
02:38PM 41.9639 -75.1333 210° Southwest 428 493 18,000  Level New York Center
02:39PM 41.8631 -75.2158 211° Southwest 428 493 18,000 -540 Level New York Center
02:40PM 41.7536 -75.3058 212° Southwest 422 486 17,000 -1,320 Descending New York Center
02:41PM 41.6547 -75.3850 211° Southwest 417 480 15,400 -1,620 Descending New York Center
02:42PM 41.5600 -75.4589 210° Southwest 417 480 13,800 -1,680 Descending New York Center
02:43PM 41.4761 -75.5278 212° Southwest 417 480 12,100 -960 Descending New York Center
02:44PM 41.3836 -75.6014 211° Southwest 406 467 12,000 -60 Descending New York Center
02:45PM 41.2867 -75.6775 211° Southwest 406 467 12,000 -300 Level New York Center
02:46PM 41.1700 -75.6828 182° South 376 433 11,400 -1,020 Descending New York Center
02:47PM 41.0631 -75.6447 165° South 388 447 10,000 -720 Descending New York Center
02:48PM 40.9644 -75.6128 166° South 372 428 10,000  Level New York Center
02:49PM 40.8700 -75.5786 165° South 372 428 10,000  Level New York Center
02:50PM 40.7817 -75.5478 165° South 372 428 10,000  Level New York Center
02:51PM 40.6811 -75.5106 164° South 372 428 10,000  Level New York Center
02:52PM 40.5844 -75.4794 166° South 372 428 10,000 -540 Level New York Center
02:53PM 40.5064 -75.4522 165° South 327 376 9,000 -660 Descending New York Center
02:54PM 40.4264 -75.4169 161° South 304 350 8,800 -960 Descending New York Center
02:55PM 40.3428 -75.3703 157° South 298 343 7,100 -960 Descending New York Center
02:56PM 40.2692 -75.3328 159° South 292 336 7,000 -60 Descending New York Center
02:57PM 40.1972 -75.3606 196° South 273 314 7,000 -180 Level New York Center
02:58PM 40.1144 -75.3986 199° South 286 329 6,700 -540 Descending New York Center
02:59PM 40.0511 -75.4161 192° South 286 329 6,000 -360 Descending New York Center
03:00PM 39.9872 -75.3983 168° South 233 268 6,000  Level New York Center
03:01PM 39.9353 -75.3975 179° South 209 241 6,000  Level New York Center
03:02PM 39.9158 -75.4667 250° West 161 185 6,000  Level New York Center
03:03PM 39.8983 -75.5411 253° West 196 226 6,000 -60 Level New York Center
03:04PM 39.8786 -75.6103 250° West 211 243 5,900 -540 Descending New York Center
03:05PM 39.8272 -75.5933 166° South 176 203 5,000 -660 Descending New York Center
03:05PM 39.8167 -75.5667 117° Southeast 184 212 5,000  Level Philadelphia TRACON